createdAt,value
2023-02-04T00:00:01.688Z,10.99
2023-02-04T00:02:28.479Z,10.88
2023-02-04T00:04:55.313Z,11.09
2023-02-04T00:07:22.193Z,11.07
2023-02-04T00:09:50.114Z,10.95
2023-02-04T00:12:17.608Z,10.99
2023-02-04T00:14:44.446Z,11.01
2023-02-04T00:17:13.006Z,10.94
2023-02-04T00:19:41.160Z,10.90
2023-02-04T00:22:08.549Z,10.84
2023-02-04T00:24:36.464Z,10.84
2023-02-04T00:27:04.339Z,10.83
2023-02-04T00:29:31.419Z,10.78
2023-02-04T00:31:58.302Z,10.68
2023-02-04T00:34:25.445Z,10.47
2023-02-04T00:36:52.165Z,10.48
2023-02-04T00:39:18.989Z,10.46
2023-02-04T00:41:45.777Z,10.52
2023-02-04T00:44:14.380Z,10.31
2023-02-04T00:46:42.717Z,10.44
2023-02-04T00:49:13.229Z,10.36
2023-02-04T00:51:41.161Z,10.36
2023-02-04T00:54:07.959Z,10.30
2023-02-04T00:56:35.029Z,10.30
2023-02-04T00:59:03.461Z,10.28
2023-02-04T01:01:30.933Z,10.38
2023-02-04T01:03:57.710Z,10.46
2023-02-04T01:06:24.438Z,10.38
2023-02-04T01:08:51.491Z,10.53
2023-02-04T01:11:19.003Z,10.45
2023-02-04T01:13:45.998Z,10.45
2023-02-04T01:16:13.517Z,10.33
2023-02-04T01:18:40.402Z,10.25
2023-02-04T01:21:07.222Z,10.20
2023-02-04T01:23:33.970Z,10.23
2023-02-04T01:26:00.902Z,10.27
2023-02-04T01:28:27.682Z,10.13
2023-02-04T01:30:54.555Z,10.26
2023-02-04T01:33:21.513Z,10.28
2023-02-04T01:35:48.399Z,10.23
2023-02-04T01:38:15.266Z,10.29
2023-02-04T01:40:43.089Z,10.22
2023-02-04T01:43:10.918Z,10.32
2023-02-04T01:45:38.006Z,10.36
2023-02-04T01:48:06.425Z,10.18
2023-02-04T01:50:34.150Z,10.35
2023-02-04T01:53:01.462Z,10.24
2023-02-04T01:55:30.509Z,10.18
2023-02-04T01:57:59.028Z,10.16
2023-02-04T02:00:32.644Z,10.21
2023-02-04T02:03:00.792Z,10.21
2023-02-04T02:05:32.890Z,10.26
2023-02-04T02:08:01.929Z,10.22
2023-02-04T02:10:29.679Z,10.18
2023-02-04T02:12:57.582Z,10.26
2023-02-04T02:15:25.135Z,10.24
2023-02-04T02:17:55.447Z,10.12
2023-02-04T02:20:24.050Z,9.98
2023-02-04T02:23:20.573Z,9.91
2023-02-04T02:25:48.619Z,9.90
2023-02-04T02:28:19.059Z,9.88
2023-02-04T02:30:47.163Z,9.86
2023-02-04T02:33:17.321Z,10.01
2023-02-04T02:35:48.467Z,9.75
2023-02-04T02:38:19.944Z,9.69
2023-02-04T02:40:49.761Z,9.73
2023-02-04T02:43:22.074Z,9.66
2023-02-04T02:45:50.015Z,9.80
2023-02-04T02:48:17.253Z,9.77
2023-02-04T02:50:44.529Z,9.79
2023-02-04T02:53:17.078Z,9.81
2023-02-04T02:55:45.533Z,9.82
2023-02-04T02:58:40.409Z,9.77
2023-02-04T03:01:09.732Z,9.65
2023-02-04T03:03:48.617Z,9.44
2023-02-04T03:06:24.979Z,9.46
2023-02-04T03:08:56.064Z,9.31
2023-02-04T03:11:23.872Z,9.35
2023-02-04T03:13:51.915Z,9.07
2023-02-04T03:16:19.328Z,9.26
2023-02-04T03:18:46.180Z,9.27
2023-02-04T03:21:12.958Z,9.28
2023-02-04T03:23:40.165Z,9.31
2023-02-04T03:26:07.228Z,9.37
2023-02-04T03:28:34.311Z,9.42
2023-02-04T03:31:01.698Z,9.59
2023-02-04T03:33:31.835Z,9.37
2023-02-04T03:35:59.298Z,9.40
2023-02-04T03:38:26.951Z,9.64
2023-02-04T03:40:53.855Z,9.65
2023-02-04T03:43:20.695Z,9.82
2023-02-04T03:45:47.504Z,9.94
2023-02-04T03:48:14.333Z,10.04
2023-02-04T03:50:41.250Z,10.01
2023-02-04T03:53:08.393Z,10.00
2023-02-04T03:55:36.121Z,9.95
2023-02-04T03:58:04.321Z,9.69
2023-02-04T04:00:32.614Z,9.52
2023-02-04T04:03:00.384Z,9.53
2023-02-04T04:05:28.597Z,9.51
2023-02-04T04:07:55.431Z,9.27
2023-02-04T04:10:22.235Z,9.09
2023-02-04T04:12:48.996Z,9.03
2023-02-04T04:15:15.810Z,8.81
2023-02-04T04:17:42.541Z,8.64
2023-02-04T04:20:10.007Z,8.76
2023-02-04T04:22:36.793Z,8.92
2023-02-04T04:25:03.968Z,8.74
2023-02-04T04:27:30.960Z,8.49
2023-02-04T04:29:58.174Z,8.21
2023-02-04T04:32:24.892Z,8.02
2023-02-04T04:34:51.717Z,7.92
2023-02-04T04:37:18.528Z,8.02
2023-02-04T04:39:45.281Z,8.06
2023-02-04T04:42:12.096Z,8.18
2023-02-04T04:44:38.863Z,8.26
2023-02-04T04:47:05.588Z,7.95
2023-02-04T04:49:32.405Z,8.11
2023-02-04T04:51:59.162Z,8.12
2023-02-04T04:54:25.856Z,7.99
2023-02-04T04:56:52.560Z,8.03
2023-02-04T04:59:19.272Z,8.10
2023-02-04T05:01:46.023Z,8.12
2023-02-04T05:04:12.776Z,8.14
2023-02-04T05:06:39.516Z,7.99
2023-02-04T05:09:06.441Z,8.12
2023-02-04T05:11:33.529Z,8.14
2023-02-04T05:14:00.273Z,8.11
2023-02-04T05:16:26.966Z,8.05
2023-02-04T05:18:53.804Z,7.92
2023-02-04T05:21:20.543Z,7.71
2023-02-04T05:23:47.242Z,7.42
2023-02-04T05:26:22.165Z,7.48
2023-02-04T05:28:56.302Z,7.48
2023-02-04T05:31:23.268Z,7.36
2023-02-04T05:33:50.147Z,7.45
2023-02-04T05:36:17.905Z,7.36
2023-02-04T05:38:44.727Z,7.34
2023-02-04T05:41:11.490Z,7.28
2023-02-04T05:43:38.639Z,7.36
2023-02-04T05:46:05.761Z,7.38
2023-02-04T05:48:32.730Z,7.39
2023-02-04T05:50:59.451Z,7.41
2023-02-04T05:53:26.346Z,7.62
2023-02-04T05:55:53.433Z,7.73
2023-02-04T05:58:20.203Z,7.83
2023-02-04T06:00:47.060Z,7.86
2023-02-04T06:03:14.646Z,7.91
2023-02-04T06:05:41.605Z,7.84
2023-02-04T06:08:08.424Z,7.81
2023-02-04T06:10:35.219Z,7.81
2023-02-04T06:13:03.155Z,7.94
2023-02-04T06:15:30.003Z,8.10
2023-02-04T06:17:58.408Z,8.21
2023-02-04T06:20:25.217Z,8.25
2023-02-04T06:22:53.303Z,8.32
2023-02-04T06:25:23.426Z,8.42
2023-02-04T06:27:50.451Z,8.44
2023-02-04T06:30:18.429Z,8.48
2023-02-04T06:32:45.232Z,8.54
2023-02-04T06:35:13.263Z,8.58
2023-02-04T06:37:40.209Z,8.49
2023-02-04T06:40:08.701Z,8.42
2023-02-04T06:42:35.435Z,8.32
2023-02-04T06:45:02.715Z,8.31
2023-02-04T06:47:29.475Z,8.38
2023-02-04T06:49:56.214Z,8.22
2023-02-04T06:52:23.058Z,8.28
2023-02-04T06:54:49.810Z,8.27
2023-02-04T06:57:16.562Z,8.32
2023-02-04T06:59:43.765Z,8.40
2023-02-04T07:02:11.791Z,8.40
2023-02-04T07:04:38.597Z,8.37
2023-02-04T07:07:05.426Z,8.29
2023-02-04T07:09:32.204Z,8.26
2023-02-04T07:11:58.999Z,8.30
2023-02-04T07:14:25.785Z,8.25
2023-02-04T07:16:52.596Z,8.23
2023-02-04T07:19:21.159Z,8.22
2023-02-04T07:21:48.171Z,8.01
2023-02-04T07:24:14.963Z,7.98
2023-02-04T07:26:41.725Z,7.90
2023-02-04T07:29:14.468Z,7.95
2023-02-04T07:31:41.811Z,7.82
2023-02-04T07:34:08.642Z,7.86
2023-02-04T07:36:35.410Z,7.94
2023-02-04T07:39:02.277Z,7.86
2023-02-04T07:41:29.046Z,7.94
2023-02-04T07:43:55.818Z,8.31
2023-02-04T07:46:22.680Z,8.41
2023-02-04T07:48:49.434Z,8.60
2023-02-04T07:51:16.258Z,8.73
2023-02-04T07:53:43.042Z,8.78
2023-02-04T07:56:09.852Z,8.85
2023-02-04T07:58:36.811Z,8.92
2023-02-04T08:01:03.688Z,9.05
2023-02-04T08:03:31.529Z,9.23
2023-02-04T08:05:59.103Z,9.34
2023-02-04T08:08:25.861Z,9.38
2023-02-04T08:10:52.581Z,9.45
2023-02-04T08:13:19.363Z,9.50
2023-02-04T08:15:46.262Z,9.52
2023-02-04T08:18:12.973Z,9.77
2023-02-04T08:20:39.705Z,9.86
2023-02-04T08:23:06.562Z,9.79
2023-02-04T08:25:33.266Z,9.92
2023-02-04T08:28:00.053Z,10.23
2023-02-04T08:30:27.077Z,10.61
2023-02-04T08:32:53.860Z,10.60
2023-02-04T08:35:20.590Z,10.87
2023-02-04T08:37:47.361Z,10.83
2023-02-04T08:40:14.159Z,10.98
2023-02-04T08:42:40.937Z,11.29
2023-02-04T08:45:08.097Z,11.52
2023-02-04T08:47:34.852Z,11.52
2023-02-04T08:50:01.638Z,11.33
2023-02-04T08:52:28.472Z,11.18
2023-02-04T08:54:55.311Z,11.19
2023-02-04T08:57:22.069Z,11.12
2023-02-04T08:59:48.803Z,11.33
2023-02-04T09:02:15.689Z,11.24
2023-02-04T09:04:42.432Z,11.31
2023-02-04T09:07:09.193Z,11.51
2023-02-04T09:09:36.019Z,11.53
2023-02-04T09:12:03.287Z,11.75
2023-02-04T09:14:30.108Z,11.59
2023-02-04T09:16:56.929Z,11.66
2023-02-04T09:19:26.587Z,11.56
2023-02-04T09:21:53.961Z,11.44
2023-02-04T09:24:23.693Z,11.52
2023-02-04T09:26:50.848Z,11.65
2023-02-04T09:29:17.660Z,11.72
2023-02-04T09:31:44.426Z,11.78
2023-02-04T09:34:11.266Z,11.83
2023-02-04T09:36:39.086Z,11.99
2023-02-04T09:39:12.313Z,12.08
2023-02-04T09:41:40.685Z,12.13
2023-02-04T09:44:16.326Z,12.34
2023-02-04T09:46:48.686Z,12.38
2023-02-04T09:49:15.651Z,12.46
2023-02-04T09:51:44.025Z,12.58
2023-02-04T09:54:14.876Z,12.66
2023-02-04T09:56:42.143Z,12.68
2023-02-04T09:59:29.968Z,12.90
2023-02-04T10:02:13.798Z,13.03
2023-02-04T10:04:40.677Z,13.05
2023-02-04T10:07:12.353Z,13.05
2023-02-04T10:09:40.613Z,13.04
2023-02-04T10:12:07.902Z,12.97
2023-02-04T10:14:34.672Z,13.12
2023-02-04T10:17:01.843Z,13.26
2023-02-04T10:19:30.723Z,13.37
2023-02-04T10:21:57.999Z,13.60
2023-02-04T10:24:26.689Z,13.71
2023-02-04T10:26:54.250Z,13.86
2023-02-04T10:29:26.725Z,13.88
2023-02-04T10:31:53.680Z,13.99
2023-02-04T10:34:33.434Z,14.03
2023-02-04T10:37:01.246Z,14.00
2023-02-04T10:39:29.780Z,14.02
2023-02-04T10:41:59.193Z,14.07
2023-02-04T10:44:36.027Z,14.17
2023-02-04T10:47:16.902Z,14.33
2023-02-04T10:50:17.974Z,14.36
2023-02-04T10:53:16.834Z,14.36
2023-02-04T10:55:45.696Z,14.57
2023-02-04T10:58:16.028Z,14.62
2023-02-04T11:00:42.955Z,14.63
2023-02-04T11:03:27.212Z,14.81
2023-02-04T11:05:58.152Z,14.75
2023-02-04T11:08:29.259Z,14.84
2023-02-04T11:10:59.431Z,14.89
2023-02-04T11:13:38.896Z,15.11
2023-02-04T11:16:25.630Z,15.19
2023-02-04T11:18:56.955Z,15.26
2023-02-04T11:21:28.422Z,15.35
2023-02-04T11:24:05.437Z,15.41
2023-02-04T11:26:37.390Z,15.50
2023-02-04T11:29:04.141Z,15.61
2023-02-04T11:31:33.629Z,15.76
2023-02-04T11:34:13.506Z,15.90
2023-02-04T11:37:01.171Z,15.93
2023-02-04T11:39:45.279Z,16.07
2023-02-04T11:42:17.756Z,16.23
2023-02-04T11:44:52.770Z,16.33
2023-02-04T11:47:20.871Z,16.47
2023-02-04T11:49:54.634Z,16.53
2023-02-04T11:52:21.477Z,16.73
2023-02-04T11:54:55.846Z,16.87
2023-02-04T11:57:22.681Z,16.98
2023-02-04T11:59:49.482Z,17.12
2023-02-04T12:02:19.311Z,17.20
2023-02-04T12:05:16.516Z,17.40
2023-02-04T12:07:44.491Z,17.52
2023-02-04T12:10:18.334Z,17.61
2023-02-04T12:12:51.914Z,17.72
2023-02-04T12:15:38.824Z,17.80
2023-02-04T12:18:08.406Z,17.91
2023-02-04T12:20:38.944Z,18.00
2023-02-04T12:23:06.159Z,18.12
2023-02-04T12:25:33.138Z,18.22
2023-02-04T12:28:00.125Z,18.25
2023-02-04T12:30:27.474Z,18.33
2023-02-04T12:32:54.313Z,18.36
2023-02-04T12:35:21.049Z,18.51
2023-02-04T12:37:47.819Z,18.59
2023-02-04T12:40:17.004Z,18.68
2023-02-04T12:42:44.558Z,18.74
2023-02-04T12:45:13.848Z,18.82
2023-02-04T12:47:41.106Z,18.93
2023-02-04T12:50:10.437Z,19.05
2023-02-04T12:52:39.316Z,19.12
2023-02-04T12:55:08.164Z,19.23
2023-02-04T12:57:35.622Z,19.31
2023-02-04T13:00:02.517Z,19.37
2023-02-04T13:02:29.656Z,19.45
2023-02-04T13:04:56.684Z,19.34
2023-02-04T13:07:23.761Z,19.46
2023-02-04T13:09:50.790Z,19.56
2023-02-04T13:12:17.545Z,19.66
2023-02-04T13:14:44.722Z,19.75
2023-02-04T13:17:11.576Z,19.83
2023-02-04T13:19:38.452Z,19.95
2023-02-04T13:22:05.278Z,20.01
2023-02-04T13:24:32.179Z,20.08
2023-02-04T13:26:59.187Z,20.13
2023-02-04T13:29:25.999Z,20.17
2023-02-04T13:31:52.920Z,20.22
2023-02-04T13:34:19.868Z,20.29
2023-02-04T13:36:46.832Z,20.33
2023-02-04T13:39:13.879Z,20.36
2023-02-04T13:41:41.027Z,20.44
2023-02-04T13:44:07.907Z,20.48
2023-02-04T13:46:34.881Z,20.52
2023-02-04T13:49:01.715Z,20.56
2023-02-04T13:51:28.471Z,20.54
2023-02-04T13:53:55.597Z,20.59
2023-02-04T13:56:22.736Z,20.63
2023-02-04T13:58:49.523Z,20.67
2023-02-04T14:01:16.370Z,20.56
2023-02-04T14:03:43.868Z,20.66
2023-02-04T14:06:11.338Z,20.63
2023-02-04T14:08:38.325Z,20.66
2023-02-04T14:11:05.303Z,20.73
2023-02-04T14:13:32.098Z,20.74
2023-02-04T14:15:58.979Z,20.74
2023-02-04T14:18:25.797Z,20.79
2023-02-04T14:20:52.715Z,20.82
2023-02-04T14:23:19.523Z,20.79
2023-02-04T14:25:46.259Z,20.74
2023-02-04T14:28:13.058Z,20.73
2023-02-04T14:30:39.800Z,20.72
2023-02-04T14:33:08.909Z,20.76
2023-02-04T14:35:35.753Z,20.68
2023-02-04T14:38:02.488Z,20.64
2023-02-04T14:40:29.267Z,20.55
2023-02-04T14:42:56.088Z,20.55
2023-02-04T14:45:22.896Z,20.60
2023-02-04T14:47:51.836Z,20.64
2023-02-04T14:50:18.706Z,20.66
2023-02-04T14:52:45.397Z,20.68
2023-02-04T14:55:12.997Z,20.69
2023-02-04T14:57:39.933Z,20.68
2023-02-04T15:00:07.357Z,20.71
2023-02-04T15:02:34.283Z,20.68
2023-02-04T15:05:00.997Z,20.69
2023-02-04T15:07:27.888Z,20.70
2023-02-04T15:09:54.794Z,20.69
2023-02-04T15:12:22.572Z,20.65
2023-02-04T15:14:49.359Z,20.63
2023-02-04T15:17:16.096Z,20.59
2023-02-04T15:19:42.947Z,20.56
2023-02-04T15:22:09.739Z,20.54
2023-02-04T15:24:36.482Z,20.52
2023-02-04T15:27:03.459Z,20.50
2023-02-04T15:29:30.617Z,20.48
2023-02-04T15:31:58.143Z,20.46
2023-02-04T15:34:25.076Z,20.41
2023-02-04T15:36:52.002Z,20.39
2023-02-04T15:39:18.934Z,20.38
2023-02-04T15:41:45.860Z,20.36
2023-02-04T15:44:12.669Z,20.36
2023-02-04T15:46:39.489Z,20.34
2023-02-04T15:49:06.244Z,20.34
2023-02-04T15:51:33.160Z,20.33
2023-02-04T15:53:59.907Z,20.35
2023-02-04T15:56:26.675Z,20.33
2023-02-04T15:58:53.696Z,20.36
2023-02-04T16:01:20.536Z,20.37
2023-02-04T16:03:47.354Z,20.36
2023-02-04T16:06:14.091Z,20.35
2023-02-04T16:08:40.803Z,20.34
2023-02-04T16:11:07.553Z,20.33
2023-02-04T16:13:34.327Z,20.32
2023-02-04T16:16:01.101Z,20.32
2023-02-04T16:18:27.937Z,20.30
2023-02-04T16:20:54.663Z,20.28
2023-02-04T16:23:21.429Z,20.25
2023-02-04T16:25:48.224Z,20.24
2023-02-04T16:28:15.140Z,20.23
2023-02-04T16:30:41.863Z,20.19
2023-02-04T16:33:08.669Z,20.18
2023-02-04T16:35:58.311Z,20.16
2023-02-04T16:38:25.865Z,20.13
2023-02-04T16:40:52.641Z,20.12
2023-02-04T16:43:19.729Z,20.10
2023-02-04T16:45:46.583Z,20.02
2023-02-04T16:48:13.335Z,19.94
2023-02-04T16:50:40.174Z,19.83
2023-02-04T16:53:07.232Z,19.68
2023-02-04T16:55:35.079Z,19.56
2023-02-04T16:58:01.974Z,19.48
2023-02-04T17:00:28.820Z,19.43
2023-02-04T17:02:55.763Z,19.32
2023-02-04T17:05:22.523Z,19.22
2023-02-04T17:07:49.246Z,19.11
2023-02-04T17:10:16.261Z,19.05
2023-02-04T17:12:42.976Z,19.00
2023-02-04T17:15:09.935Z,18.94
2023-02-04T17:17:36.960Z,18.84
2023-02-04T17:20:04.115Z,18.72
2023-02-04T17:22:30.925Z,18.65
2023-02-04T17:24:57.686Z,18.57
2023-02-04T17:27:24.506Z,18.51
2023-02-04T17:29:51.314Z,18.42
2023-02-04T17:32:18.110Z,18.37
2023-02-04T17:34:44.793Z,18.28
2023-02-04T17:37:11.503Z,18.26
2023-02-04T17:39:38.197Z,18.17
2023-02-04T17:42:04.928Z,18.11
2023-02-04T17:44:32.195Z,18.01
2023-02-04T17:46:59.069Z,17.99
2023-02-04T17:49:26.175Z,17.98
2023-02-04T17:51:52.925Z,17.89
2023-02-04T17:54:19.680Z,17.87
2023-02-04T17:56:46.454Z,17.85
2023-02-04T17:59:13.287Z,17.70
2023-02-04T18:01:41.630Z,17.72
2023-02-04T18:04:15.197Z,17.58
2023-02-04T18:06:42.028Z,17.53
2023-02-04T18:09:16.693Z,17.48
2023-02-04T18:11:44.291Z,17.38
2023-02-04T18:14:28.560Z,17.36
2023-02-04T18:16:58.418Z,17.35
2023-02-04T18:19:27.621Z,17.30
2023-02-04T18:21:55.049Z,17.18
2023-02-04T18:24:39.692Z,17.15
2023-02-04T18:27:31.194Z,17.16
2023-02-04T18:30:01.125Z,17.05
2023-02-04T18:32:37.837Z,16.95
2023-02-04T18:35:29.849Z,16.87
2023-02-04T18:37:56.619Z,16.82
2023-02-04T18:40:30.482Z,16.76
2023-02-04T18:43:26.314Z,16.69
2023-02-04T18:45:54.182Z,16.65
2023-02-04T18:48:20.856Z,16.61
2023-02-04T18:50:53.568Z,16.59
2023-02-04T18:53:26.143Z,16.48
2023-02-04T18:55:58.346Z,16.47
2023-02-04T18:58:38.436Z,16.36
2023-02-04T19:01:11.333Z,16.32
2023-02-04T19:03:49.151Z,16.36
2023-02-04T19:06:26.664Z,16.19
2023-02-04T19:09:01.525Z,16.16
2023-02-04T19:11:36.006Z,16.09
2023-02-04T19:14:14.353Z,16.14
2023-02-04T19:16:41.649Z,16.08
2023-02-04T19:19:27.051Z,15.94
2023-02-04T19:21:53.883Z,16.03
2023-02-04T19:24:29.709Z,15.89
2023-02-04T19:26:59.384Z,15.93
2023-02-04T19:29:29.424Z,15.98
2023-02-04T19:32:00.783Z,15.91
2023-02-04T19:34:37.530Z,15.89
2023-02-04T19:37:31.562Z,15.74
2023-02-04T19:39:58.317Z,15.70
2023-02-04T19:42:29.494Z,15.65
2023-02-04T19:45:00.191Z,15.60
2023-02-04T19:47:42.196Z,15.62
2023-02-04T19:50:28.574Z,15.50
2023-02-04T19:53:00.005Z,15.49
2023-02-04T19:55:26.743Z,15.36
2023-02-04T19:57:59.264Z,15.32
2023-02-04T20:00:37.459Z,15.22
2023-02-04T20:03:27.728Z,15.25
2023-02-04T20:06:01.373Z,15.21
2023-02-04T20:08:42.407Z,15.10
2023-02-04T20:11:18.033Z,15.15
2023-02-04T20:13:44.847Z,15.18
2023-02-04T20:16:38.113Z,15.10
2023-02-04T20:19:26.639Z,14.94
2023-02-04T20:22:19.112Z,15.04
2023-02-04T20:24:49.961Z,14.97
2023-02-04T20:27:42.963Z,14.78
2023-02-04T20:30:11.647Z,14.67
2023-02-04T20:32:47.174Z,14.55
2023-02-04T20:35:13.944Z,14.46
2023-02-04T20:37:42.478Z,14.63
2023-02-04T20:40:29.212Z,14.55
2023-02-04T20:43:06.081Z,14.56
2023-02-04T20:45:41.724Z,14.61
2023-02-04T20:48:17.276Z,14.59
2023-02-04T20:50:49.122Z,14.58
2023-02-04T20:53:32.411Z,14.73
2023-02-04T20:56:04.169Z,14.67
2023-02-04T20:58:41.588Z,14.63
2023-02-04T21:01:46.389Z,14.60
2023-02-04T21:04:44.691Z,14.60
2023-02-04T21:07:18.517Z,14.58
2023-02-04T21:09:45.628Z,14.46
2023-02-04T21:12:12.731Z,14.38
2023-02-04T21:14:42.352Z,14.30
2023-02-04T21:17:09.197Z,14.24
2023-02-04T21:19:35.983Z,14.22
2023-02-04T21:22:02.832Z,14.24
2023-02-04T21:24:33.685Z,14.14
2023-02-04T21:27:00.709Z,14.27
2023-02-04T21:29:27.748Z,14.25
2023-02-04T21:31:54.842Z,14.24
2023-02-04T21:34:21.902Z,14.14
2023-02-04T21:36:48.780Z,14.10
2023-02-04T21:39:15.825Z,14.14
2023-02-04T21:41:42.591Z,14.14
2023-02-04T21:44:09.344Z,14.01
2023-02-04T21:46:36.188Z,14.07
2023-02-04T21:49:04.961Z,13.99
2023-02-04T21:51:31.843Z,14.04
2023-02-04T21:53:59.968Z,14.09
2023-02-04T21:56:26.766Z,14.04
2023-02-04T21:58:54.073Z,13.99
2023-02-04T22:01:23.623Z,13.92
2023-02-04T22:03:55.572Z,13.89
2023-02-04T22:06:30.987Z,14.04
2023-02-04T22:08:57.832Z,14.09
2023-02-04T22:11:24.633Z,13.98
2023-02-04T22:14:09.917Z,14.03
2023-02-04T22:16:36.651Z,13.96
2023-02-04T22:19:10.022Z,13.98
2023-02-04T22:21:39.638Z,14.03
2023-02-04T22:24:06.567Z,14.01
2023-02-04T22:26:35.621Z,13.96
2023-02-04T22:29:06.443Z,14.03
2023-02-04T22:34:16.928Z,14.09
2023-02-04T22:36:46.037Z,14.01
2023-02-04T22:39:15.815Z,14.12
2023-02-04T22:42:00.487Z,13.93
2023-02-04T22:44:27.432Z,13.79
2023-02-04T22:46:59.550Z,13.85
2023-02-04T22:49:29.384Z,13.67
2023-02-04T22:51:58.757Z,13.52
2023-02-04T22:54:28.391Z,13.44
2023-02-04T22:56:57.873Z,13.29
2023-02-04T22:59:25.942Z,13.25
2023-02-04T23:01:54.484Z,13.25
2023-02-04T23:04:25.410Z,13.18
2023-02-04T23:06:52.909Z,13.03
2023-02-04T23:09:20.167Z,13.10
2023-02-04T23:11:47.000Z,13.22
2023-02-04T23:14:13.761Z,13.07
2023-02-04T23:16:40.576Z,13.06
2023-02-04T23:19:07.366Z,13.15
2023-02-04T23:21:34.456Z,13.15
2023-02-04T23:24:01.445Z,13.08
2023-02-04T23:26:28.286Z,13.05
2023-02-04T23:28:55.632Z,13.07
2023-02-04T23:31:22.469Z,12.94
2023-02-04T23:33:49.325Z,12.97
2023-02-04T23:36:16.062Z,12.99
2023-02-04T23:38:42.793Z,13.01
2023-02-04T23:41:09.642Z,13.11
2023-02-04T23:43:36.406Z,13.16
2023-02-04T23:46:03.288Z,13.19
2023-02-04T23:48:30.236Z,13.22
2023-02-04T23:50:58.032Z,13.18
2023-02-04T23:53:25.235Z,13.12
2023-02-04T23:55:52.161Z,13.05
2023-02-04T23:58:19.428Z,13.04
